Time;durP1;ratioP1;P1;durP2;ratioP2;P2;SDS_P1;SDS_P2;PMS_P1;PMS_P2;Temp;Humidity;BMP_temperature;BMP_pressure;BME280_temperature;BME280_humidity;BME280_pressure;Samples;Min_cycle;Max_cycle;Signal;HPM_P1;HPM_P2
2022/08/19 00:01:14;;;;;;;9.40;8.80;;;-6.20;99.90;;;;;;5078160;28;20489;-72
2022/08/19 00:03:39;;;;;;;17.33;15.73;;;-6.50;99.90;;;;;;5078579;28;20182;-72
2022/08/19 00:06:05;;;;;;;19.80;17.87;;;-6.00;99.90;;;;;;5078452;28;20180;-72
2022/08/19 00:08:32;;;;;;;20.57;18.73;;;-5.20;99.90;;;;;;5077770;28;20263;-70
2022/08/19 00:10:58;;;;;;;21.10;19.03;;;-5.00;99.90;;;;;;5077991;28;20266;-70
2022/08/19 00:13:23;;;;;;;22.23;19.07;;;-3.50;99.90;;;;;;5077883;28;20807;-71
2022/08/19 00:15:49;;;;;;;20.70;18.70;;;-7.10;99.90;;;;;;5076245;28;20664;-71
2022/08/19 00:18:15;;;;;;;24.27;21.67;;;-4.90;99.90;;;;;;5078195;28;20182;-75
2022/08/19 00:20:41;;;;;;;33.57;27.77;;;-9.30;99.90;;;;;;5076949;28;20282;-70
2022/08/19 00:23:07;;;;;;;30.47;27.17;;;-8.50;99.90;;;;;;5077936;28;20187;-71
2022/08/19 00:25:33;;;;;;;30.60;27.40;;;-6.10;99.90;;;;;;5077532;28;20186;-70
2022/08/19 00:27:59;;;;;;;34.47;30.40;;;-6.30;99.90;;;;;;5076303;28;20265;-71
2022/08/19 00:30:27;;;;;;;35.17;30.23;;;-7.20;99.90;;;;;;5077333;28;20271;-74
2022/08/19 00:32:54;;;;;;;38.13;34.10;;;-6.60;99.90;;;;;;5083652;28;20222;-72
2022/08/19 00:35:21;;;;;;;39.87;32.83;;;-9.80;99.90;;;;;;5077612;28;20263;-72
2022/08/19 00:37:48;;;;;;;42.80;35.23;;;-7.30;99.90;;;;;;5077541;28;20179;-74
2022/08/19 00:40:15;;;;;;;39.87;34.10;;;-5.60;99.90;;;;;;5077261;28;20238;-72
2022/08/19 00:42:41;;;;;;;42.77;33.43;;;-6.10;99.90;;;;;;5077843;28;20186;-70
2022/08/19 00:45:21;;;;;;;39.43;32.60;;;-6.50;99.90;;;;;;5076658;28;20186;-69
2022/08/19 00:47:46;;;;;;;44.07;36.00;;;-4.50;99.90;;;;;;5078152;28;20197;-70
2022/08/19 00:50:16;;;;;;;51.67;39.20;;;-4.50;99.90;;;;;;5076476;28;20179;-70
2022/08/19 00:52:46;;;;;;;40.13;35.47;;;-5.40;99.90;;;;;;5076987;28;20610;-70
2022/08/19 00:55:19;;;;;;;43.63;37.60;;;-5.40;99.90;;;;;;5076339;28;20179;-69
2022/08/19 00:57:54;;;;;;;41.27;36.60;;;-4.50;99.90;;;;;;5091812;28;20194;-71
2022/08/19 01:00:21;;;;;;;47.90;38.53;;;-4.70;99.90;;;;;;5075979;28;20202;-70
2022/08/19 01:02:48;;;;;;;45.23;35.57;;;-4.50;99.90;;;;;;5081990;28;20275;-70
2022/08/19 01:05:20;;;;;;;44.10;37.03;;;-6.70;99.90;;;;;;5076542;28;20246;-70
2022/08/19 01:07:48;;;;;;;44.40;39.43;;;-8.40;99.90;;;;;;5076489;28;20629;-70
2022/08/19 01:10:21;;;;;;;47.87;36.30;;;-8.20;99.90;;;;;;5075029;28;20215;-70
2022/08/19 01:12:49;;;;;;;49.43;38.40;;;-7.00;99.90;;;;;;5076735;28;20195;-70
2022/08/19 01:15:21;;;;;;;43.73;38.10;;;-8.60;99.90;;;;;;5077382;28;20171;-69
2022/08/19 01:17:47;;;;;;;45.33;35.70;;;-9.10;99.90;;;;;;5084064;28;20187;-70
2022/08/19 01:20:16;;;;;;;38.33;33.97;;;-6.30;99.90;;;;;;5076696;28;20210;-71
2022/08/19 01:22:49;;;;;;;37.03;31.67;;;-6.90;99.90;;;;;;5091955;28;20186;-71
2022/08/19 01:25:18;;;;;;;38.40;32.47;;;-8.80;99.90;;;;;;5076586;28;20167;-69
2022/08/19 01:27:47;;;;;;;37.97;33.87;;;-5.60;99.90;;;;;;5077085;28;20282;-71
2022/08/19 01:30:22;;;;;;;41.00;32.63;;;-6.50;99.90;;;;;;5077603;28;20197;-71
2022/08/19 01:32:48;;;;;;;36.93;32.37;;;-5.10;99.90;;;;;;5076005;28;20484;-70
2022/08/19 01:35:17;;;;;;;31.27;28.00;;;-5.90;99.90;;;;;;5076791;28;20171;-70
2022/08/19 01:37:50;;;;;;;32.67;29.00;;;-7.00;99.90;;;;;;5077311;28;20183;-72
2022/08/19 01:40:19;;;;;;;34.43;29.20;;;-8.20;99.90;;;;;;5077039;28;20207;-73
2022/08/19 01:42:44;;;;;;;31.37;28.07;;;-12.00;99.90;;;;;;5076288;28;20210;-70
2022/08/19 01:45:10;;;;;;;36.53;28.73;;;-7.70;99.90;;;;;;5075910;28;20215;-70
2022/08/19 01:47:37;;;;;;;31.87;28.80;;;-6.80;99.90;;;;;;5075772;28;20186;-72
2022/08/19 01:50:05;;;;;;;30.57;27.43;;;-10.40;99.90;;;;;;5085841;28;20340;-70
2022/08/19 01:52:31;;;;;;;30.60;27.07;;;-9.00;99.90;;;;;;5073973;28;20179;-70
2022/08/19 01:54:57;;;;;;;31.07;27.77;;;-10.40;99.90;;;;;;5077355;28;20183;-70
2022/08/19 01:57:23;;;;;;;31.00;27.63;;;-7.90;99.90;;;;;;5075757;28;20229;-70
2022/08/19 01:59:50;;;;;;;32.33;28.97;;;-8.30;99.90;;;;;;5076154;28;20246;-71
2022/08/19 02:02:15;;;;;;;30.37;26.90;;;-8.30;99.90;;;;;;5076173;28;20338;-71
2022/08/19 02:04:41;;;;;;;31.50;28.20;;;-10.10;99.90;;;;;;5075953;28;20280;-70
2022/08/19 02:07:08;;;;;;;32.80;26.73;;;-13.00;99.90;;;;;;5076092;28;20174;-70
2022/08/19 02:09:34;;;;;;;26.83;24.17;;;-9.30;99.90;;;;;;5075829;28;20194;-70
2022/08/19 02:12:00;;;;;;;29.60;26.47;;;-8.30;99.90;;;;;;5076644;28;20187;-70
2022/08/19 02:14:26;;;;;;;27.20;24.40;;;-12.40;99.90;;;;;;5080104;28;20187;-70
2022/08/19 02:16:52;;;;;;;28.90;26.00;;;-12.70;99.90;;;;;;5075677;28;20195;-70
2022/08/19 02:19:18;;;;;;;25.63;23.00;;;-11.30;99.90;;;;;;5075282;28;20207;-70
2022/08/19 02:21:44;;;;;;;25.20;22.60;;;-10.00;99.90;;;;;;5080035;28;20179;-70
2022/08/19 02:24:10;;;;;;;26.77;23.17;;;-8.20;99.90;;;;;;5076440;28;20205;-70
2022/08/19 02:26:35;;;;;;;26.90;24.10;;;-8.10;99.90;;;;;;5076595;28;20186;-71
2022/08/19 02:29:01;;;;;;;26.40;23.70;;;-8.70;99.90;;;;;;5075857;28;20262;-69
2022/08/19 02:31:27;;;;;;;29.67;25.50;;;-13.50;99.90;;;;;;5076728;28;20279;-71
2022/08/19 02:33:55;;;;;;;28.67;25.87;;;-8.50;99.90;;;;;;5075595;28;20197;-71
2022/08/19 02:36:21;;;;;;;29.60;24.83;;;-12.20;99.90;;;;;;5075896;28;20175;-70
2022/08/19 02:38:47;;;;;;;28.33;25.37;;;-10.90;99.90;;;;;;5077906;28;20252;-72
2022/08/19 02:41:19;;;;;;;25.20;22.73;;;-9.60;99.90;;;;;;5080400;28;20184;-70
2022/08/19 02:43:46;;;;;;;28.00;25.00;;;-10.60;99.90;;;;;;5079558;28;20184;-71
2022/08/19 02:46:21;;;;;;;29.30;24.77;;;-8.60;99.90;;;;;;5079596;28;20180;-71
2022/08/19 02:49:00;;;;;;;27.37;24.47;;;-13.90;99.90;;;;;;5079474;28;20682;-71
2022/08/19 02:51:29;;;;;;;25.67;22.97;;;-10.70;99.90;;;;;;5082861;28;20175;-72
2022/08/19 02:53:54;;;;;;;27.23;23.53;;;-15.10;99.90;;;;;;5078754;28;20265;-72
2022/08/19 02:56:21;;;;;;;26.60;24.07;;;-15.60;99.90;;;;;;5078934;28;20310;-70
2022/08/19 02:58:48;;;;;;;24.47;21.87;;;-12.40;99.90;;;;;;5079227;28;20529;-70
2022/08/19 03:01:30;;;;;;;26.03;23.50;;;-15.10;99.90;;;;;;5082375;28;20502;-70
2022/08/19 03:03:57;;;;;;;26.40;23.47;;;-14.70;99.90;;;;;;5079507;28;20183;-70
2022/08/19 03:06:23;;;;;;;25.00;21.17;;;-15.60;99.90;;;;;;5079177;28;20266;-70
2022/08/19 03:08:49;;;;;;;25.53;22.77;;;-10.20;99.90;;;;;;5077972;28;20187;-70
2022/08/19 03:11:18;;;;;;;25.63;20.63;;;-11.30;99.90;;;;;;5079742;28;20186;-70
2022/08/19 03:13:44;;;;;;;38.00;21.73;;;-9.50;99.90;;;;;;5079604;28;20280;-72
2022/08/19 03:16:11;;;;;;;25.63;22.37;;;-10.00;99.90;;;;;;5082161;28;20191;-72
2022/08/19 03:18:37;;;;;;;29.77;22.13;;;-10.60;99.90;;;;;;5079227;28;20217;-70
2022/08/19 03:21:03;;;;;;;25.37;21.53;;;-14.00;99.90;;;;;;5080036;28;20173;-71
2022/08/19 03:23:29;;;;;;;24.27;21.63;;;-9.20;99.90;;;;;;5081386;28;20224;-70
2022/08/19 03:25:55;;;;;;;24.87;20.17;;;-13.20;99.90;;;;;;5079724;28;20180;-73
2022/08/19 03:28:21;;;;;;;25.67;20.97;;;-13.00;99.90;;;;;;5079146;28;20191;-70
2022/08/19 03:31:00;;;;;;;23.07;20.33;;;-15.50;99.90;;;;;;5079098;28;20263;-71
2022/08/19 03:33:28;;;;;;;22.47;20.07;;;-11.30;99.90;;;;;;5078945;28;20261;-71
2022/08/19 03:36:04;;;;;;;28.23;22.10;;;-13.00;99.90;;;;;;5077893;28;20175;-74
2022/08/19 03:38:32;;;;;;;26.53;19.77;;;-15.30;99.90;;;;;;5085056;28;20605;-71
2022/08/19 03:40:58;;;;;;;22.37;20.07;;;-14.30;99.90;;;;;;5081410;28;20523;-74
2022/08/19 03:43:24;;;;;;;27.33;20.50;;;-14.20;99.90;;;;;;5094217;28;20288;-74
2022/08/19 03:46:04;;;;;;;26.50;20.17;;;-13.50;99.90;;;;;;5078861;28;20194;-74
2022/08/19 03:48:30;;;;;;;24.60;20.07;;;-11.50;99.90;;;;;;5078367;28;20199;-73
2022/08/19 03:50:58;;;;;;;24.80;19.10;;;-7.40;99.90;;;;;;5078254;28;20318;-71
2022/08/19 03:53:24;;;;;;;24.30;20.93;;;-6.90;99.90;;;;;;5077863;28;20210;-71
2022/08/19 03:55:49;;;;;;;22.27;19.30;;;-8.10;99.90;;;;;;5078240;28;20215;-77
2022/08/19 03:58:15;;;;;;;24.97;21.57;;;-14.40;99.90;;;;;;5078051;28;20179;-74
2022/08/19 04:00:42;;;;;;;23.37;20.97;;;-17.60;99.90;;;;;;5084573;28;20215;-71
2022/08/19 04:03:08;;;;;;;43.10;24.03;;;-14.10;99.90;;;;;;5078542;28;20203;-75
2022/08/19 04:05:34;;;;;;;27.00;20.33;;;-14.40;99.90;;;;;;5077977;28;20218;-75
2022/08/19 04:08:00;;;;;;;26.63;22.47;;;-16.30;99.90;;;;;;5078663;28;20176;-75
2022/08/19 04:10:27;;;;;;;24.07;21.23;;;-15.00;99.90;;;;;;5076900;28;20201;-77
2022/08/19 04:12:53;;;;;;;25.03;20.43;;;-18.30;99.90;;;;;;5077812;28;20190;-72
2022/08/19 04:15:20;;;;;;;31.03;22.30;;;-12.70;99.90;;;;;;5078410;28;20374;-77
2022/08/19 04:17:46;;;;;;;25.23;21.33;;;-12.30;99.90;;;;;;5078395;28;20194;-78
2022/08/19 04:20:12;;;;;;;24.83;22.30;;;-15.00;99.90;;;;;;5078179;28;20610;-75
2022/08/19 04:22:38;;;;;;;24.20;19.90;;;-15.70;99.90;;;;;;5078303;28;20240;-75
2022/08/19 04:25:04;;;;;;;24.77;19.57;;;-15.60;99.90;;;;;;5077412;28;20191;-71
2022/08/19 04:27:31;;;;;;;28.57;20.00;;;-13.30;99.90;;;;;;5077111;28;20179;-75
2022/08/19 04:29:57;;;;;;;23.70;19.07;;;-10.10;99.90;;;;;;5091816;28;20191;-75
2022/08/19 04:32:22;;;;;;;28.97;22.10;;;-13.70;99.90;;;;;;5092468;28;20225;-71
2022/08/19 04:34:49;;;;;;;25.83;22.43;;;-14.80;99.90;;;;;;5077452;28;20270;-71
2022/08/19 04:37:14;;;;;;;24.77;20.53;;;-15.20;99.90;;;;;;5080774;28;20191;-70
2022/08/19 04:42:40;;;;;;;34.50;21.43;;;-14.80;99.90;;;;;;5077422;28;20218;-71
2022/08/19 04:45:12;;;;;;;27.33;20.47;;;-18.10;99.90;;;;;;5076359;28;20190;-70
2022/08/19 04:47:41;;;;;;;29.10;20.60;;;-16.70;99.90;;;;;;5077191;28;20252;-77
2022/08/19 04:50:07;;;;;;;32.80;20.70;;;-19.00;99.90;;;;;;5077085;28;20277;-72
2022/08/19 04:52:33;;;;;;;32.33;21.17;;;-11.80;99.90;;;;;;5077685;28;20194;-70
2022/08/19 04:55:00;;;;;;;25.43;20.73;;;-11.50;99.90;;;;;;5077717;28;20187;-73
2022/08/19 04:57:26;;;;;;;25.47;21.23;;;-10.30;99.90;;;;;;5077453;28;20183;-72
2022/08/19 04:59:55;;;;;;;24.30;19.10;;;-10.20;99.90;;;;;;5077732;28;20594;-74
2022/08/19 05:02:25;;;;;;;30.70;21.30;;;-12.10;99.90;;;;;;5082037;28;20191;-72
2022/08/19 05:04:57;;;;;;;20.37;17.93;;;-11.70;99.90;;;;;;5076274;28;20187;-75
2022/08/19 05:07:22;;;;;;;23.40;20.90;;;-13.20;99.90;;;;;;5077525;28;20179;-72
2022/08/19 05:09:48;;;;;;;28.53;20.57;;;-13.20;99.90;;;;;;5077395;28;20248;-73
2022/08/19 05:12:15;;;;;;;24.73;19.60;;;-17.10;99.90;;;;;;5075540;28;20592;-74
2022/08/19 05:14:41;;;;;;;28.73;21.40;;;-13.30;99.90;;;;;;5077118;28;20292;-75
2022/08/19 05:17:06;;;;;;;35.83;20.70;;;-13.10;99.90;;;;;;5077177;28;20227;-73
2022/08/19 05:22:34;;;;;;;23.33;19.77;;;-15.50;99.90;;;;;;5076011;28;20206;-72
2022/08/19 05:25:12;;;;;;;31.93;21.33;;;-15.40;99.90;;;;;;5076057;28;20190;-77
2022/08/19 05:27:38;;;;;;;24.00;21.53;;;-16.10;99.90;;;;;;5076299;28;20183;-76
2022/08/19 05:30:05;;;;;;;20.93;18.37;;;-15.10;99.90;;;;;;5076596;28;20195;-72
2022/08/19 05:32:30;;;;;;;24.20;19.40;;;-13.70;99.90;;;;;;5087951;28;20555;-76
2022/08/19 05:34:57;;;;;;;29.33;20.57;;;-14.50;99.90;;;;;;5077607;28;20277;-74
2022/08/19 05:37:23;;;;;;;26.90;22.07;;;-14.60;99.90;;;;;;5090957;28;20214;-74
2022/08/19 05:39:49;;;;;;;23.83;20.33;;;-14.30;99.90;;;;;;5086582;28;20235;-77
2022/08/19 05:42:15;;;;;;;30.47;21.13;;;-12.70;99.90;;;;;;5085409;28;20266;-72
2022/08/19 05:44:43;;;;;;;23.90;18.83;;;-13.30;99.90;;;;;;5090808;28;20183;-71
2022/08/19 05:47:11;;;;;;;25.30;19.93;;;-13.60;99.90;;;;;;5094753;28;20190;-77
2022/08/19 05:49:37;;;;;;;19.00;16.97;;;-13.60;99.90;;;;;;5088819;28;20218;-75
2022/08/19 05:52:05;;;;;;;22.83;17.60;;;-13.50;99.90;;;;;;5098081;28;20182;-72
2022/08/19 05:54:31;;;;;;;19.87;16.70;;;-19.40;99.90;;;;;;5097031;28;20204;-75
2022/08/19 05:56:57;;;;;;;21.67;15.47;;;-21.90;99.90;;;;;;5101312;28;20197;-73
2022/08/19 05:59:23;;;;;;;18.90;15.47;;;-20.50;99.90;;;;;;5082534;28;20218;-75
2022/08/19 06:01:51;;;;;;;14.83;13.13;;;-18.80;99.90;;;;;;5076199;28;20190;-72
2022/08/19 06:04:19;;;;;;;14.97;13.37;;;-15.70;99.90;;;;;;5076939;28;20183;-70
2022/08/19 06:06:46;;;;;;;13.73;12.43;;;-16.70;99.90;;;;;;5076765;28;20188;-73
2022/08/19 06:09:12;;;;;;;21.17;14.30;;;-14.20;99.90;;;;;;5092763;28;20639;-75
2022/08/19 06:11:53;;;;;;;14.80;11.03;;;-14.20;99.90;;;;;;5085908;28;20187;-73
2022/08/19 06:14:22;;;;;;;11.67;10.23;;;-17.00;99.90;;;;;;5079884;28;20187;-76
2022/08/19 06:16:48;;;;;;;16.60;10.90;;;-12.40;99.90;;;;;;5085762;28;20187;-73
2022/08/19 06:19:17;;;;;;;10.30;9.30;;;-12.00;99.90;;;;;;5080448;28;20282;-72
2022/08/19 06:21:47;;;;;;;16.40;9.97;;;-10.70;99.90;;;;;;5086479;28;20236;-65
2022/08/19 06:24:15;;;;;;;11.70;9.03;;;-12.10;99.90;;;;;;5081659;28;20269;-66
2022/08/19 06:26:43;;;;;;;12.73;10.00;;;-10.50;99.90;;;;;;5080061;28;20189;-64
2022/08/19 06:29:11;;;;;;;15.63;10.83;;;-10.60;99.90;;;;;;5079002;28;20195;-66
2022/08/19 06:31:40;;;;;;;14.93;9.83;;;-9.20;99.90;;;;;;5080865;28;20191;-65
2022/08/19 06:34:06;;;;;;;11.30;9.13;;;-9.50;99.90;;;;;;5085814;28;20183;-64
2022/08/19 06:36:41;;;;;;;10.00;9.00;;;-10.20;99.90;;;;;;5080359;28;20194;-65
2022/08/19 06:39:19;;;;;;;15.63;8.63;;;-9.00;99.90;;;;;;5082293;28;20216;-64
2022/08/19 06:41:48;;;;;;;9.70;7.80;;;-10.50;99.90;;;;;;5089021;28;20269;-66
2022/08/19 06:44:14;;;;;;;8.30;7.47;;;-10.60;99.90;;;;;;5079536;28;20483;-64
2022/08/19 06:46:41;;;;;;;9.60;8.10;;;-8.50;99.90;;;;;;5079479;28;20250;-64
2022/08/19 06:49:13;;;;;;;9.47;8.43;;;-10.90;99.90;;;;;;5079280;28;20234;-65
2022/08/19 06:51:41;;;;;;;8.47;7.60;;;-11.50;99.90;;;;;;5080481;28;20171;-65
2022/08/19 06:54:07;;;;;;;12.10;7.80;;;-9.70;99.90;;;;;;5087441;28;20576;-63
2022/08/19 06:56:34;;;;;;;12.93;7.77;;;-9.30;99.90;;;;;;5086980;28;20183;-65
2022/08/19 06:59:05;;;;;;;9.33;8.13;;;-11.90;99.90;;;;;;5078486;28;20574;-65
2022/08/19 07:01:37;;;;;;;7.43;6.73;;;-12.60;99.90;;;;;;5078876;28;20221;-64
2022/08/19 07:04:05;;;;;;;10.47;7.43;;;-11.50;99.90;;;;;;5079251;28;20186;-64
2022/08/19 07:06:30;;;;;;;9.43;7.13;;;-8.70;99.90;;;;;;5079714;28;20575;-67
2022/08/19 07:08:58;;;;;;;9.70;8.07;;;-8.70;99.90;;;;;;5084281;28;20442;-63
2022/08/19 07:11:24;;;;;;;8.37;7.43;;;-8.50;99.90;;;;;;5079025;28;20270;-64
2022/08/19 07:13:50;;;;;;;10.33;8.07;;;-7.80;99.90;;;;;;5093344;28;20191;-64
2022/08/19 07:16:21;;;;;;;10.33;8.83;;;-9.00;99.90;;;;;;5083914;28;20180;-65
2022/08/19 07:18:49;;;;;;;10.60;8.27;;;-9.50;99.90;;;;;;5078691;28;20845;-64
2022/08/19 07:21:19;;;;;;;8.07;7.37;;;-12.60;99.90;;;;;;5079494;28;20203;-64
2022/08/19 07:23:45;;;;;;;11.17;9.50;;;-11.40;99.90;;;;;;5082367;28;20495;-65
2022/08/19 07:26:18;;;;;;;16.00;7.73;;;-9.00;99.90;;;;;;5078616;28;20190;-64
2022/08/19 07:28:46;;;;;;;9.23;6.97;;;-13.60;99.90;;;;;;5079917;28;20290;-64
2022/08/19 07:31:14;;;;;;;11.57;6.87;;;-13.10;99.90;;;;;;5078206;28;20270;-67
2022/08/19 07:33:42;;;;;;;8.60;7.60;;;-13.60;99.90;;;;;;5078146;28;20182;-68
2022/08/19 07:36:13;;;;;;;11.77;8.10;;;-16.90;99.90;;;;;;5093604;28;20193;-66
2022/08/19 07:38:41;;;;;;;9.23;6.47;;;-11.80;99.90;;;;;;5076925;28;20499;-65
2022/08/19 07:41:10;;;;;;;10.07;7.07;;;-6.40;99.90;;;;;;5078877;28;20186;-66
2022/08/19 07:43:38;;;;;;;9.83;7.97;;;-6.00;99.90;;;;;;5091207;28;20558;-66
2022/08/19 07:46:03;;;;;;;7.07;6.40;;;-6.00;99.90;;;;;;5078902;28;20171;-65
2022/08/19 07:48:29;;;;;;;12.33;8.50;;;-5.20;99.90;;;;;;5078690;28;20195;-66
2022/08/19 07:51:01;;;;;;;11.70;7.40;;;-6.50;99.90;;;;;;5085141;28;20180;-66
2022/08/19 07:53:28;;;;;;;9.93;6.87;;;-5.50;99.90;;;;;;5078771;28;20253;-69
2022/08/19 07:55:54;;;;;;;14.93;6.73;;;-6.40;99.90;;;;;;5078168;28;20508;-67
2022/08/19 07:58:22;;;;;;;8.00;5.83;;;-7.40;99.90;;;;;;5078125;28;20191;-65
2022/08/19 08:00:50;;;;;;;6.70;6.10;;;-9.00;99.90;;;;;;5078686;28;20222;-69
2022/08/19 08:03:18;;;;;;;8.07;6.43;;;-9.30;99.90;;;;;;5078749;28;20188;-67
2022/08/19 08:11:18;;;;;;;6.90;6.33;;;-11.20;99.90;;;;;;5079104;28;20190;-66
2022/08/19 08:13:43;;;;;;;6.93;5.70;;;-7.30;99.90;;;;;;5078539;28;20194;-65
2022/08/19 08:16:10;;;;;;;6.33;5.73;;;-5.20;99.90;;;;;;5077252;28;20490;-66
2022/08/19 08:18:41;;;;;;;8.37;5.53;;;-3.20;99.90;;;;;;5077742;28;20207;-64
2022/08/19 08:21:07;;;;;;;6.63;5.63;;;-7.70;99.90;;;;;;5077089;28;20595;-65
2022/08/19 08:23:32;;;;;;;5.07;4.33;;;-5.70;99.90;;;;;;5077844;28;20203;-65
2022/08/19 08:25:58;;;;;;;8.10;6.37;;;-4.70;99.90;;;;;;5077554;28;20621;-66
2022/08/19 08:28:26;;;;;;;6.10;4.60;;;-1.70;99.90;;;;;;5078593;28;20183;-67
2022/08/19 08:30:52;;;;;;;9.40;5.90;;;-3.20;99.90;;;;;;5077864;28;20206;-69
2022/08/19 08:33:22;;;;;;;9.80;4.97;;;-0.60;99.90;;;;;;5076872;28;20598;-64
2022/08/19 08:35:48;;;;;;;4.90;4.53;;;-6.90;99.90;;;;;;5079481;28;20182;-66
2022/08/19 08:38:15;;;;;;;4.97;4.43;;;-7.90;99.90;;;;;;5077302;28;20615;-65
2022/08/19 08:40:49;;;;;;;4.40;3.97;;;-3.30;99.90;;;;;;5078260;28;20209;-65
2022/08/19 08:43:18;;;;;;;7.27;4.43;;;-5.40;99.90;;;;;;5077809;28;20313;-68
2022/08/19 08:46:05;;;;;;;4.00;3.67;;;-4.90;99.90;;;;;;5077901;28;20198;-68
2022/08/19 08:48:49;;;;;;;8.47;4.23;;;-9.30;99.90;;;;;;5076131;28;20286;-67
2022/08/19 08:51:23;;;;;;;5.37;3.67;;;-4.90;99.90;;;;;;5076629;28;20187;-65
2022/08/19 08:53:51;;;;;;;5.50;3.93;;;-5.90;99.90;;;;;;5077528;28;20210;-66
2022/08/19 08:56:18;;;;;;;4.70;4.13;;;-6.30;99.90;;;;;;5077448;28;20210;-65
2022/08/19 08:58:56;;;;;;;4.87;3.57;;;-5.90;99.90;;;;;;5080073;28;20232;-66
2022/08/19 09:01:22;;;;;;;8.60;4.73;;;-7.40;99.90;;;;;;5084726;28;20229;-64
2022/08/19 09:03:48;;;;;;;8.73;3.83;;;-3.60;99.90;;;;;;5079008;28;20484;-64
2022/08/19 09:06:16;;;;;;;5.23;4.47;;;-4.60;99.90;;;;;;5076174;28;20183;-66
2022/08/19 09:09:09;;;;;;;5.30;4.77;;;-4.50;99.90;;;;;;5077443;28;20175;-65
2022/08/19 09:11:56;;;;;;;4.37;3.97;;;-4.00;99.90;;;;;;5077314;28;20198;-68
2022/08/19 09:14:37;;;;;;;5.37;4.67;;;-2.40;99.90;;;;;;5076731;28;20486;-65
2022/08/19 09:17:07;;;;;;;7.07;4.37;;;-7.40;99.90;;;;;;5087683;28;20202;-67
2022/08/19 09:19:35;;;;;;;7.57;5.43;;;-4.00;99.90;;;;;;5076350;28;20237;-65
2022/08/19 09:22:01;;;;;;;4.73;4.30;;;-3.70;99.90;;;;;;5076714;28;20190;-66
2022/08/19 09:24:27;;;;;;;6.43;4.50;;;-4.10;99.90;;;;;;5075639;28;20179;-66
2022/08/19 09:26:53;;;;;;;6.70;5.60;;;-0.80;99.90;;;;;;5075454;28;20187;-68
2022/08/19 09:29:20;;;;;;;5.97;4.20;;;0.00;99.90;;;;;;5077346;28;20209;-65
2022/08/19 09:31:46;;;;;;;4.73;4.33;;;0.40;99.90;;;;;;5076445;28;20188;-65
2022/08/19 09:34:12;;;;;;;6.07;4.17;;;0.40;99.90;;;;;;5076222;28;20178;-64
2022/08/19 09:36:38;;;;;;;4.13;3.73;;;-5.30;99.90;;;;;;5075732;28;20194;-66
2022/08/19 09:39:05;;;;;;;4.10;3.67;;;-4.60;99.90;;;;;;5076133;28;20203;-65
2022/08/19 09:41:31;;;;;;;5.27;4.70;;;-6.60;99.90;;;;;;5076271;28;20179;-67
2022/08/19 09:43:59;;;;;;;7.60;4.73;;;-3.30;99.90;;;;;;5076320;28;20191;-65
2022/08/19 09:46:28;;;;;;;4.60;4.13;;;-3.00;99.90;;;;;;5076599;28;20179;-63
2022/08/19 09:48:55;;;;;;;5.03;4.67;;;-3.10;99.90;;;;;;5076270;28;20547;-67
2022/08/19 09:51:24;;;;;;;5.17;4.63;;;-0.20;99.90;;;;;;5076918;28;20220;-65
2022/08/19 09:53:51;;;;;;;7.30;5.40;;;-2.60;99.90;;;;;;5075658;28;20175;-66
2022/08/19 09:56:18;;;;;;;6.83;5.20;;;-7.10;99.90;;;;;;5076877;28;20183;-65
2022/08/19 09:58:45;;;;;;;5.33;4.50;;;-5.40;99.90;;;;;;5076427;28;20276;-67
2022/08/19 10:01:22;;;;;;;7.80;3.73;;;-5.90;99.90;;;;;;5075738;28;20190;-68
2022/08/19 10:03:51;;;;;;;4.40;4.00;;;-5.40;99.90;;;;;;5074816;28;20183;-68
2022/08/19 10:06:17;;;;;;;4.43;3.57;;;-8.20;99.90;;;;;;5082177;28;20215;-66
2022/08/19 10:08:43;;;;;;;5.77;4.53;;;-2.90;99.90;;;;;;5075966;28;20452;-66
2022/08/19 10:11:10;;;;;;;4.93;4.43;;;-6.30;99.90;;;;;;5085046;28;20635;-65
2022/08/19 10:13:36;;;;;;;13.77;5.27;;;-6.90;99.90;;;;;;5082936;28;20175;-65
2022/08/19 10:16:06;;;;;;;5.07;3.90;;;-7.30;99.90;;;;;;5076191;28;20182;-65
2022/08/19 10:18:34;;;;;;;3.87;3.30;;;-9.80;99.90;;;;;;5075577;28;20183;-68
2022/08/19 10:21:10;;;;;;;3.73;3.43;;;-18.00;99.90;;;;;;5075269;28;20511;-66
2022/08/19 10:23:38;;;;;;;4.90;4.40;;;-17.40;99.90;;;;;;5073558;28;20221;-65
2022/08/19 10:26:06;;;;;;;4.73;3.97;;;-7.50;99.90;;;;;;5076229;28;20217;-65
2022/08/19 10:28:39;;;;;;;5.13;4.00;;;-9.50;99.90;;;;;;5075231;28;20179;-64
2022/08/19 10:31:07;;;;;;;5.30;4.30;;;-3.10;99.90;;;;;;5076300;28;20186;-68
2022/08/19 10:33:34;;;;;;;5.53;5.13;;;-3.90;99.90;;;;;;5074406;28;20187;-67
2022/08/19 10:36:02;;;;;;;5.20;4.83;;;-1.40;99.90;;;;;;5075919;28;20186;-69
2022/08/19 10:38:28;;;;;;;6.37;5.60;;;-6.30;99.90;;;;;;5075850;28;20250;-67
2022/08/19 10:40:54;;;;;;;9.63;7.13;;;-3.00;99.90;;;;;;5076766;28;20310;-66
2022/08/19 10:43:20;;;;;;;5.73;5.23;;;-2.60;99.90;;;;;;5075992;28;20225;-68
2022/08/19 10:45:55;;;;;;;5.90;4.60;;;-5.10;99.90;;;;;;5076187;28;20179;-68
2022/08/19 10:48:21;;;;;;;6.70;5.60;;;-6.90;99.90;;;;;;5074951;28;20183;-68
2022/08/19 10:53:30;;;;;;;5.33;4.60;;;-5.80;99.90;;;;;;5076102;28;20202;-66
2022/08/19 10:56:56;;;;;;;5.73;5.23;;;-4.00;99.90;;;;;;5075605;28;20595;-68
2022/08/19 10:58:51;;;;;;;6.20;5.60;;;-12.90;99.90;;;;;;5078367;28;20214;-66
2022/08/19 11:01:18;;;;;;;7.07;6.47;;;-5.10;99.90;;;;;;5081654;28;20179;-68
2022/08/19 11:03:45;;;;;;;6.50;6.00;;;-4.70;99.90;;;;;;5079642;28;20222;-67
2022/08/19 11:06:11;;;;;;;8.00;7.27;;;-2.80;99.90;;;;;;5078574;28;20225;-69
2022/08/19 11:08:37;;;;;;;8.13;6.27;;;-6.00;99.90;;;;;;5084534;28;20541;-67
2022/08/19 11:11:04;;;;;;;6.93;6.33;;;-6.20;99.90;;;;;;5079630;28;20164;-66
2022/08/19 11:13:33;;;;;;;6.33;5.83;;;-19.40;99.90;;;;;;5079021;28;20175;-66
2022/08/19 11:16:06;;;;;;;6.83;6.23;;;-17.70;99.90;;;;;;5079795;28;20240;-67
2022/08/19 11:18:33;;;;;;;6.10;5.60;;;-20.20;99.90;;;;;;5078929;28;20212;-68
2022/08/19 11:21:13;;;;;;;9.53;7.63;;;-17.40;99.90;;;;;;5079017;28;20230;-67
2022/08/19 11:23:39;;;;;;;7.47;6.87;;;-8.20;99.90;;;;;;5078788;28;20590;-67
2022/08/19 11:26:06;;;;;;;9.30;8.33;;;-13.60;99.90;;;;;;5078479;28;20228;-67
2022/08/19 11:28:31;;;;;;;10.03;7.50;;;-12.00;99.90;;;;;;5078992;28;20511;-67
2022/08/19 11:30:57;;;;;;;7.40;6.60;;;-9.70;99.90;;;;;;5078564;28;20293;-67
2022/08/19 11:33:23;;;;;;;9.30;8.37;;;-9.80;99.90;;;;;;5079106;28;20172;-66
2022/08/19 11:35:49;;;;;;;7.10;6.40;;;-5.50;99.90;;;;;;5078378;28;20187;-67
2022/08/19 11:38:15;;;;;;;7.57;6.87;;;-10.30;99.90;;;;;;5079273;28;20179;-67
2022/08/19 11:40:42;;;;;;;7.87;7.10;;;-10.60;99.90;;;;;;5078877;28;20269;-68
2022/08/19 11:43:08;;;;;;;9.40;7.63;;;-12.10;99.90;;;;;;5086554;28;20271;-67
2022/08/19 11:45:34;;;;;;;7.63;6.63;;;-7.60;99.90;;;;;;5078207;28;20248;-67
2022/08/19 11:47:59;;;;;;;7.57;6.97;;;-13.50;99.90;;;;;;5078425;28;20240;-68
2022/08/19 11:50:25;;;;;;;7.60;6.90;;;-7.80;99.90;;;;;;5077749;28;20187;-67
2022/08/19 11:52:55;;;;;;;7.87;7.23;;;-6.60;99.90;;;;;;5077902;28;20601;-67
2022/08/19 11:55:22;;;;;;;7.20;5.90;;;-4.80;99.90;;;;;;5078281;28;20175;-64
2022/08/19 11:57:48;;;;;;;7.30;6.60;;;-11.00;99.90;;;;;;5078184;28;20179;-64
2022/08/19 12:00:14;;;;;;;6.47;5.57;;;-10.00;99.90;;;;;;5078852;28;20274;-70
2022/08/19 12:02:42;;;;;;;13.00;6.30;;;-15.80;99.90;;;;;;5077609;28;20199;-68
2022/08/19 12:05:08;;;;;;;8.03;6.07;;;-19.40;99.90;;;;;;5077764;28;20484;-65
2022/08/19 12:07:35;;;;;;;6.23;5.23;;;-22.20;99.90;;;;;;5078142;28;20186;-67
2022/08/19 12:10:01;;;;;;;6.00;5.37;;;-27.10;99.90;;;;;;5077859;28;20230;-64
2022/08/19 12:12:27;;;;;;;7.80;5.03;;;-31.00;99.90;;;;;;5077392;28;20241;-63
2022/08/19 12:14:57;;;;;;;8.50;6.00;;;-38.60;99.90;;;;;;5077969;28;20611;-65
2022/08/19 12:17:25;;;;;;;5.03;4.37;;;-40.00;99.90;;;;;;5077947;28;20638;-66
2022/08/19 12:19:51;;;;;;;6.50;4.70;;;-40.00;99.70;;;;;;5081295;28;20246;-67
2022/08/19 12:22:17;;;;;;;8.00;4.60;;;-40.00;97.30;;;;;;5078532;28;20645;-67
2022/08/19 12:24:43;;;;;;;10.10;4.57;;;-40.00;95.60;;;;;;5077606;28;20461;-69
2022/08/19 12:27:09;;;;;;;5.47;3.80;;;-40.00;96.60;;;;;;5078156;28;20244;-68
2022/08/19 12:29:35;;;;;;;4.63;3.30;;;-40.00;96.50;;;;;;5078381;28;20191;-67
2022/08/19 12:32:01;;;;;;;3.97;3.67;;;-40.00;96.30;;;;;;5076992;28;20498;-66
2022/08/19 12:34:32;;;;;;;7.80;3.93;;;-40.00;97.10;;;;;;5078030;28;20205;-66
2022/08/19 12:36:59;;;;;;;3.90;3.50;;;-40.00;96.50;;;;;;5076563;28;20198;-65
2022/08/19 12:39:25;;;;;;;2.73;2.40;;;-40.00;95.80;;;;;;5078083;28;20313;-65
2022/08/19 12:41:52;;;;;;;2.80;2.53;;;-40.00;96.80;;;;;;5077325;28;20180;-67
2022/08/19 12:44:18;;;;;;;5.20;2.63;;;-40.00;97.40;;;;;;5082166;28;20183;-65
2022/08/19 12:46:44;;;;;;;2.47;2.27;;;-40.00;97.60;;;;;;5076432;28;20210;-65
2022/08/19 12:49:10;;;;;;;2.30;2.10;;;-40.00;96.70;;;;;;5076420;28;20565;-66